sensor_id;sensor_type;location;lat;lon;timestamp;temperature;humidity
37528;DHT22;23372;52.050;4.810;2023-07-16T00:00:48;16.10;99.90
37528;DHT22;23372;52.050;4.810;2023-07-16T00:03:15;16.10;99.90
37528;DHT22;23372;52.050;4.810;2023-07-16T00:05:40;16.30;99.90
37528;DHT22;23372;52.050;4.810;2023-07-16T00:08:06;16.30;99.90
37528;DHT22;23372;52.050;4.810;2023-07-16T00:10:35;16.30;99.90
37528;DHT22;23372;52.050;4.810;2023-07-16T00:13:02;16.30;99.90
37528;DHT22;23372;52.050;4.810;2023-07-16T00:15:28;16.30;99.90
37528;DHT22;23372;52.050;4.810;2023-07-16T00:17:54;16.30;99.90
37528;DHT22;23372;52.050;4.810;2023-07-16T00:20:21;16.30;99.90
37528;DHT22;23372;52.050;4.810;2023-07-16T00:22:47;16.30;99.90
37528;DHT22;23372;52.050;4.810;2023-07-16T00:25:13;16.30;99.90
37528;DHT22;23372;52.050;4.810;2023-07-16T00:27:39;16.30;99.90
37528;DHT22;23372;52.050;4.810;2023-07-16T00:30:05;16.20;99.90
37528;DHT22;23372;52.050;4.810;2023-07-16T00:32:30;16.30;99.90
37528;DHT22;23372;52.050;4.810;2023-07-16T00:34:56;16.20;99.90
37528;DHT22;23372;52.050;4.810;2023-07-16T00:37:21;16.20;99.90
37528;DHT22;23372;52.050;4.810;2023-07-16T00:39:47;16.10;99.90
37528;DHT22;23372;52.050;4.810;2023-07-16T00:42:13;16.00;99.90
37528;DHT22;23372;52.050;4.810;2023-07-16T00:44:39;16.00;99.90
37528;DHT22;23372;52.050;4.810;2023-07-16T00:47:04;16.00;99.90
37528;DHT22;23372;52.050;4.810;2023-07-16T00:49:30;16.00;99.90
37528;DHT22;23372;52.050;4.810;2023-07-16T00:51:58;16.10;99.90
37528;DHT22;23372;52.050;4.810;2023-07-16T00:54:24;16.10;99.90
37528;DHT22;23372;52.050;4.810;2023-07-16T00:56:51;16.10;99.90
37528;DHT22;23372;52.050;4.810;2023-07-16T00:59:17;16.10;99.90
37528;DHT22;23372;52.050;4.810;2023-07-16T01:01:42;15.90;99.90
37528;DHT22;23372;52.050;4.810;2023-07-16T01:04:08;15.90;99.90
37528;DHT22;23372;52.050;4.810;2023-07-16T01:06:36;16.00;99.90
37528;DHT22;23372;52.050;4.810;2023-07-16T01:09:15;16.10;99.90
37528;DHT22;23372;52.050;4.810;2023-07-16T01:11:42;16.10;99.90
37528;DHT22;23372;52.050;4.810;2023-07-16T01:14:08;16.10;99.90
37528;DHT22;23372;52.050;4.810;2023-07-16T01:16:34;16.20;99.90
37528;DHT22;23372;52.050;4.810;2023-07-16T01:19:00;16.20;99.90
37528;DHT22;23372;52.050;4.810;2023-07-16T01:21:42;16.10;99.90
37528;DHT22;23372;52.050;4.810;2023-07-16T01:27:17;16.20;99.90
37528;DHT22;23372;52.050;4.810;2023-07-16T01:29:51;16.20;99.90
37528;DHT22;23372;52.050;4.810;2023-07-16T01:32:20;16.20;99.90
37528;DHT22;23372;52.050;4.810;2023-07-16T01:34:47;16.20;99.90
37528;DHT22;23372;52.050;4.810;2023-07-16T01:37:13;16.20;99.90
37528;DHT22;23372;52.050;4.810;2023-07-16T01:39:39;16.30;99.90
37528;DHT22;23372;52.050;4.810;2023-07-16T01:42:05;16.30;99.90
37528;DHT22;23372;52.050;4.810;2023-07-16T01:44:31;16.30;99.90
37528;DHT22;23372;52.050;4.810;2023-07-16T01:47:04;16.30;99.90
37528;DHT22;23372;52.050;4.810;2023-07-16T01:49:31;16.30;99.90
37528;DHT22;23372;52.050;4.810;2023-07-16T01:51:57;16.30;99.90
37528;DHT22;23372;52.050;4.810;2023-07-16T01:54:22;16.30;99.90
37528;DHT22;23372;52.050;4.810;2023-07-16T01:56:48;16.30;99.90
37528;DHT22;23372;52.050;4.810;2023-07-16T01:59:14;16.30;99.90
37528;DHT22;23372;52.050;4.810;2023-07-16T02:01:39;16.30;99.90
37528;DHT22;23372;52.050;4.810;2023-07-16T02:04:05;16.30;99.90
37528;DHT22;23372;52.050;4.810;2023-07-16T02:06:30;16.30;99.90
37528;DHT22;23372;52.050;4.810;2023-07-16T02:08:56;16.30;99.90
37528;DHT22;23372;52.050;4.810;2023-07-16T02:11:22;16.30;99.90
37528;DHT22;23372;52.050;4.810;2023-07-16T02:13:48;16.30;99.90
37528;DHT22;23372;52.050;4.810;2023-07-16T02:16:14;16.30;99.90
37528;DHT22;23372;52.050;4.810;2023-07-16T02:18:39;16.20;99.90
37528;DHT22;23372;52.050;4.810;2023-07-16T02:21:05;16.20;99.90
37528;DHT22;23372;52.050;4.810;2023-07-16T02:23:30;16.30;99.90
37528;DHT22;23372;52.050;4.810;2023-07-16T02:25:56;16.20;99.90
37528;DHT22;23372;52.050;4.810;2023-07-16T02:28:21;16.20;99.90
37528;DHT22;23372;52.050;4.810;2023-07-16T02:30:49;16.20;99.90
37528;DHT22;23372;52.050;4.810;2023-07-16T02:33:16;16.20;99.90
37528;DHT22;23372;52.050;4.810;2023-07-16T02:35:49;16.20;99.90
37528;DHT22;23372;52.050;4.810;2023-07-16T02:38:15;16.20;99.90
37528;DHT22;23372;52.050;4.810;2023-07-16T02:40:45;16.20;99.90
37528;DHT22;23372;52.050;4.810;2023-07-16T02:43:11;16.30;99.90
37528;DHT22;23372;52.050;4.810;2023-07-16T02:45:36;16.20;99.90
37528;DHT22;23372;52.050;4.810;2023-07-16T02:48:02;16.20;99.90
37528;DHT22;23372;52.050;4.810;2023-07-16T02:50:28;16.20;99.90
37528;DHT22;23372;52.050;4.810;2023-07-16T02:52:54;16.30;99.90
37528;DHT22;23372;52.050;4.810;2023-07-16T02:55:19;16.30;99.90
37528;DHT22;23372;52.050;4.810;2023-07-16T02:57:45;16.30;99.90
37528;DHT22;23372;52.050;4.810;2023-07-16T03:00:11;16.30;99.90
37528;DHT22;23372;52.050;4.810;2023-07-16T03:02:36;16.30;99.90
37528;DHT22;23372;52.050;4.810;2023-07-16T03:05:02;16.20;99.90
37528;DHT22;23372;52.050;4.810;2023-07-16T03:07:28;16.10;99.90
37528;DHT22;23372;52.050;4.810;2023-07-16T03:09:54;16.20;99.90
37528;DHT22;23372;52.050;4.810;2023-07-16T03:12:20;16.10;99.90
37528;DHT22;23372;52.050;4.810;2023-07-16T03:14:45;16.00;99.90
37528;DHT22;23372;52.050;4.810;2023-07-16T03:17:11;16.00;99.90
37528;DHT22;23372;52.050;4.810;2023-07-16T03:19:37;16.10;99.90
37528;DHT22;23372;52.050;4.810;2023-07-16T03:22:02;16.00;99.90
37528;DHT22;23372;52.050;4.810;2023-07-16T03:24:29;15.90;99.90
37528;DHT22;23372;52.050;4.810;2023-07-16T03:26:55;16.00;99.90
37528;DHT22;23372;52.050;4.810;2023-07-16T03:29:20;15.90;99.90
37528;DHT22;23372;52.050;4.810;2023-07-16T03:31:46;16.00;99.90
37528;DHT22;23372;52.050;4.810;2023-07-16T03:34:11;16.00;99.90
37528;DHT22;23372;52.050;4.810;2023-07-16T03:36:37;16.00;99.90
37528;DHT22;23372;52.050;4.810;2023-07-16T03:39:02;16.10;99.90
37528;DHT22;23372;52.050;4.810;2023-07-16T03:41:28;16.10;99.90
37528;DHT22;23372;52.050;4.810;2023-07-16T03:43:54;16.20;99.90
37528;DHT22;23372;52.050;4.810;2023-07-16T03:46:19;16.20;99.90
37528;DHT22;23372;52.050;4.810;2023-07-16T03:48:45;16.20;99.90
37528;DHT22;23372;52.050;4.810;2023-07-16T03:51:10;16.40;99.90
37528;DHT22;23372;52.050;4.810;2023-07-16T03:53:37;16.30;99.90
37528;DHT22;23372;52.050;4.810;2023-07-16T03:56:03;16.30;99.90
37528;DHT22;23372;52.050;4.810;2023-07-16T03:58:29;16.40;99.90
37528;DHT22;23372;52.050;4.810;2023-07-16T04:00:55;16.40;99.90
37528;DHT22;23372;52.050;4.810;2023-07-16T04:03:21;16.40;99.90
37528;DHT22;23372;52.050;4.810;2023-07-16T04:05:46;16.40;99.90
37528;DHT22;23372;52.050;4.810;2023-07-16T04:08:12;16.40;99.90
37528;DHT22;23372;52.050;4.810;2023-07-16T04:10:38;16.40;99.90
37528;DHT22;23372;52.050;4.810;2023-07-16T04:13:04;16.50;99.90
37528;DHT22;23372;52.050;4.810;2023-07-16T04:15:30;16.40;99.90
37528;DHT22;23372;52.050;4.810;2023-07-16T04:17:55;16.50;99.90
37528;DHT22;23372;52.050;4.810;2023-07-16T04:20:21;16.60;99.90
37528;DHT22;23372;52.050;4.810;2023-07-16T04:22:47;16.60;99.90
37528;DHT22;23372;52.050;4.810;2023-07-16T04:25:12;16.60;99.90
37528;DHT22;23372;52.050;4.810;2023-07-16T04:27:39;16.60;99.90
37528;DHT22;23372;52.050;4.810;2023-07-16T04:30:07;16.60;99.90
37528;DHT22;23372;52.050;4.810;2023-07-16T04:32:33;16.60;99.90
37528;DHT22;23372;52.050;4.810;2023-07-16T04:34:58;16.50;99.90
37528;DHT22;23372;52.050;4.810;2023-07-16T04:37:24;16.60;99.90
37528;DHT22;23372;52.050;4.810;2023-07-16T04:39:50;16.60;99.90
37528;DHT22;23372;52.050;4.810;2023-07-16T04:42:15;16.50;99.90
37528;DHT22;23372;52.050;4.810;2023-07-16T04:44:42;16.60;99.90
37528;DHT22;23372;52.050;4.810;2023-07-16T04:47:08;16.70;99.90
37528;DHT22;23372;52.050;4.810;2023-07-16T04:49:35;16.70;99.90
37528;DHT22;23372;52.050;4.810;2023-07-16T04:52:01;16.70;99.90
37528;DHT22;23372;52.050;4.810;2023-07-16T04:54:27;16.80;99.90
37528;DHT22;23372;52.050;4.810;2023-07-16T04:56:52;16.90;99.90
37528;DHT22;23372;52.050;4.810;2023-07-16T04:59:18;16.90;99.90
37528;DHT22;23372;52.050;4.810;2023-07-16T05:01:44;17.10;99.90
37528;DHT22;23372;52.050;4.810;2023-07-16T05:04:09;17.00;99.90
37528;DHT22;23372;52.050;4.810;2023-07-16T05:06:35;16.90;99.90
37528;DHT22;23372;52.050;4.810;2023-07-16T05:09:01;16.90;99.90
37528;DHT22;23372;52.050;4.810;2023-07-16T05:11:26;16.80;99.90
37528;DHT22;23372;52.050;4.810;2023-07-16T05:13:52;16.80;99.90
37528;DHT22;23372;52.050;4.810;2023-07-16T05:16:17;16.80;99.90
37528;DHT22;23372;52.050;4.810;2023-07-16T05:18:43;16.70;99.90
37528;DHT22;23372;52.050;4.810;2023-07-16T05:21:09;16.90;99.90
37528;DHT22;23372;52.050;4.810;2023-07-16T05:23:34;16.80;99.90
37528;DHT22;23372;52.050;4.810;2023-07-16T05:26:00;16.80;99.90
37528;DHT22;23372;52.050;4.810;2023-07-16T05:28:25;16.80;99.90
37528;DHT22;23372;52.050;4.810;2023-07-16T05:31:01;16.80;99.90
37528;DHT22;23372;52.050;4.810;2023-07-16T05:33:27;16.90;99.90
37528;DHT22;23372;52.050;4.810;2023-07-16T05:35:53;16.90;99.90
37528;DHT22;23372;52.050;4.810;2023-07-16T05:38:18;17.00;99.90
37528;DHT22;23372;52.050;4.810;2023-07-16T05:40:44;17.00;99.90
37528;DHT22;23372;52.050;4.810;2023-07-16T05:43:10;17.10;99.90
37528;DHT22;23372;52.050;4.810;2023-07-16T05:45:36;17.10;99.90
37528;DHT22;23372;52.050;4.810;2023-07-16T05:48:02;17.20;99.90
37528;DHT22;23372;52.050;4.810;2023-07-16T05:50:29;17.30;99.90
37528;DHT22;23372;52.050;4.810;2023-07-16T05:52:54;17.30;99.90
37528;DHT22;23372;52.050;4.810;2023-07-16T05:55:20;17.50;99.90
37528;DHT22;23372;52.050;4.810;2023-07-16T05:57:46;17.40;99.90
37528;DHT22;23372;52.050;4.810;2023-07-16T06:00:12;17.50;99.90
37528;DHT22;23372;52.050;4.810;2023-07-16T06:02:39;17.50;99.90
37528;DHT22;23372;52.050;4.810;2023-07-16T06:05:05;17.80;99.90
37528;DHT22;23372;52.050;4.810;2023-07-16T06:07:31;17.80;99.90
37528;DHT22;23372;52.050;4.810;2023-07-16T06:09:57;17.80;99.90
37528;DHT22;23372;52.050;4.810;2023-07-16T06:12:23;17.90;99.90
37528;DHT22;23372;52.050;4.810;2023-07-16T06:14:49;17.80;99.90
37528;DHT22;23372;52.050;4.810;2023-07-16T06:17:14;17.90;99.90
37528;DHT22;23372;52.050;4.810;2023-07-16T06:19:40;18.00;99.90
37528;DHT22;23372;52.050;4.810;2023-07-16T06:22:06;18.00;99.90
37528;DHT22;23372;52.050;4.810;2023-07-16T06:24:32;18.00;99.90
37528;DHT22;23372;52.050;4.810;2023-07-16T06:26:58;18.10;99.90
37528;DHT22;23372;52.050;4.810;2023-07-16T06:29:24;18.10;99.90
37528;DHT22;23372;52.050;4.810;2023-07-16T06:31:59;18.20;99.90
37528;DHT22;23372;52.050;4.810;2023-07-16T06:34:25;18.20;99.90
37528;DHT22;23372;52.050;4.810;2023-07-16T06:36:51;18.10;99.90
37528;DHT22;23372;52.050;4.810;2023-07-16T06:39:17;18.10;99.90
37528;DHT22;23372;52.050;4.810;2023-07-16T06:41:42;18.30;99.90
37528;DHT22;23372;52.050;4.810;2023-07-16T06:44:08;18.40;99.90
37528;DHT22;23372;52.050;4.810;2023-07-16T06:46:34;18.70;99.90
37528;DHT22;23372;52.050;4.810;2023-07-16T06:48:59;18.80;99.90
37528;DHT22;23372;52.050;4.810;2023-07-16T06:51:25;18.70;99.90
37528;DHT22;23372;52.050;4.810;2023-07-16T06:53:50;18.60;99.90
37528;DHT22;23372;52.050;4.810;2023-07-16T06:56:16;18.50;99.90
37528;DHT22;23372;52.050;4.810;2023-07-16T06:58:42;18.60;99.90
37528;DHT22;23372;52.050;4.810;2023-07-16T07:01:07;18.90;99.90
37528;DHT22;23372;52.050;4.810;2023-07-16T07:03:33;19.20;99.90
37528;DHT22;23372;52.050;4.810;2023-07-16T07:06:02;19.30;99.90
37528;DHT22;23372;52.050;4.810;2023-07-16T07:08:29;19.60;99.90
37528;DHT22;23372;52.050;4.810;2023-07-16T07:10:55;19.90;99.90
37528;DHT22;23372;52.050;4.810;2023-07-16T07:13:21;21.00;99.90
37528;DHT22;23372;52.050;4.810;2023-07-16T07:15:47;21.20;99.90
37528;DHT22;23372;52.050;4.810;2023-07-16T07:18:13;20.60;99.90
37528;DHT22;23372;52.050;4.810;2023-07-16T07:20:41;20.20;99.90
37528;DHT22;23372;52.050;4.810;2023-07-16T07:23:07;19.70;99.90
37528;DHT22;23372;52.050;4.810;2023-07-16T07:25:33;19.40;99.90
37528;DHT22;23372;52.050;4.810;2023-07-16T07:27:59;19.10;99.90
37528;DHT22;23372;52.050;4.810;2023-07-16T07:30:25;19.60;99.90
37528;DHT22;23372;52.050;4.810;2023-07-16T07:32:51;20.20;99.90
37528;DHT22;23372;52.050;4.810;2023-07-16T07:35:17;22.20;99.90
37528;DHT22;23372;52.050;4.810;2023-07-16T07:37:42;21.80;99.90
37528;DHT22;23372;52.050;4.810;2023-07-16T07:40:08;22.20;99.90
37528;DHT22;23372;52.050;4.810;2023-07-16T07:42:34;22.70;99.90
37528;DHT22;23372;52.050;4.810;2023-07-16T07:44:59;21.70;99.90
37528;DHT22;23372;52.050;4.810;2023-07-16T07:47:25;21.10;99.90
37528;DHT22;23372;52.050;4.810;2023-07-16T07:49:52;21.00;99.90
37528;DHT22;23372;52.050;4.810;2023-07-16T07:52:18;20.30;99.90
37528;DHT22;23372;52.050;4.810;2023-07-16T07:54:44;19.80;99.90
37528;DHT22;23372;52.050;4.810;2023-07-16T07:57:09;19.80;99.90
37528;DHT22;23372;52.050;4.810;2023-07-16T07:59:35;21.60;99.90
37528;DHT22;23372;52.050;4.810;2023-07-16T08:02:01;23.90;99.90
37528;DHT22;23372;52.050;4.810;2023-07-16T08:04:29;24.50;99.90
37528;DHT22;23372;52.050;4.810;2023-07-16T08:06:57;23.90;99.90
37528;DHT22;23372;52.050;4.810;2023-07-16T08:09:23;23.40;99.90
37528;DHT22;23372;52.050;4.810;2023-07-16T08:11:49;21.90;99.90
37528;DHT22;23372;52.050;4.810;2023-07-16T08:14:14;20.40;99.90
37528;DHT22;23372;52.050;4.810;2023-07-16T08:16:40;19.90;99.90
37528;DHT22;23372;52.050;4.810;2023-07-16T08:19:06;19.30;99.90
37528;DHT22;23372;52.050;4.810;2023-07-16T08:21:32;19.10;99.90
37528;DHT22;23372;52.050;4.810;2023-07-16T08:23:58;19.20;99.90
37528;DHT22;23372;52.050;4.810;2023-07-16T08:26:24;19.30;99.90
37528;DHT22;23372;52.050;4.810;2023-07-16T08:28:49;20.20;99.90
37528;DHT22;23372;52.050;4.810;2023-07-16T08:31:15;21.50;99.90
37528;DHT22;23372;52.050;4.810;2023-07-16T08:33:40;22.10;99.90
37528;DHT22;23372;52.050;4.810;2023-07-16T08:36:06;22.90;99.90
37528;DHT22;23372;52.050;4.810;2023-07-16T08:38:32;22.20;99.90
37528;DHT22;23372;52.050;4.810;2023-07-16T08:41:00;22.50;99.90
37528;DHT22;23372;52.050;4.810;2023-07-16T08:43:26;22.30;99.90
37528;DHT22;23372;52.050;4.810;2023-07-16T08:45:53;21.80;99.90
37528;DHT22;23372;52.050;4.810;2023-07-16T08:48:19;21.50;99.90
37528;DHT22;23372;52.050;4.810;2023-07-16T08:50:49;21.10;99.90
37528;DHT22;23372;52.050;4.810;2023-07-16T08:53:18;21.00;99.90
37528;DHT22;23372;52.050;4.810;2023-07-16T08:55:45;20.80;99.90
37528;DHT22;23372;52.050;4.810;2023-07-16T08:58:14;20.90;99.90
37528;DHT22;23372;52.050;4.810;2023-07-16T09:00:42;20.70;99.90
37528;DHT22;23372;52.050;4.810;2023-07-16T09:03:11;20.70;99.90
37528;DHT22;23372;52.050;4.810;2023-07-16T09:05:38;20.60;99.90
37528;DHT22;23372;52.050;4.810;2023-07-16T09:08:04;20.90;99.90
37528;DHT22;23372;52.050;4.810;2023-07-16T09:10:30;21.20;99.90
37528;DHT22;23372;52.050;4.810;2023-07-16T09:12:58;21.10;99.90
37528;DHT22;23372;52.050;4.810;2023-07-16T09:15:26;20.70;99.90
37528;DHT22;23372;52.050;4.810;2023-07-16T09:17:54;20.70;99.90
37528;DHT22;23372;52.050;4.810;2023-07-16T09:20:20;20.60;99.90
37528;DHT22;23372;52.050;4.810;2023-07-16T09:22:47;20.60;99.90
37528;DHT22;23372;52.050;4.810;2023-07-16T09:25:13;20.10;99.90
37528;DHT22;23372;52.050;4.810;2023-07-16T09:27:38;20.10;99.90
37528;DHT22;23372;52.050;4.810;2023-07-16T09:30:05;20.70;99.90
37528;DHT22;23372;52.050;4.810;2023-07-16T09:32:38;20.80;99.90
37528;DHT22;23372;52.050;4.810;2023-07-16T09:35:14;20.80;99.90
37528;DHT22;23372;52.050;4.810;2023-07-16T09:37:41;20.80;99.90
37528;DHT22;23372;52.050;4.810;2023-07-16T09:40:09;20.70;99.90
37528;DHT22;23372;52.050;4.810;2023-07-16T09:42:40;20.80;99.90
37528;DHT22;23372;52.050;4.810;2023-07-16T09:45:08;21.10;99.90
37528;DHT22;23372;52.050;4.810;2023-07-16T09:47:35;21.60;99.90
37528;DHT22;23372;52.050;4.810;2023-07-16T09:50:02;22.10;99.90
37528;DHT22;23372;52.050;4.810;2023-07-16T09:52:30;21.90;99.90
37528;DHT22;23372;52.050;4.810;2023-07-16T09:54:59;21.80;99.90
37528;DHT22;23372;52.050;4.810;2023-07-16T09:57:26;22.00;99.90
37528;DHT22;23372;52.050;4.810;2023-07-16T09:59:55;21.90;99.90
37528;DHT22;23372;52.050;4.810;2023-07-16T10:02:21;21.70;99.90
37528;DHT22;23372;52.050;4.810;2023-07-16T10:04:47;21.50;99.90
37528;DHT22;23372;52.050;4.810;2023-07-16T10:07:24;21.10;99.90
37528;DHT22;23372;52.050;4.810;2023-07-16T10:09:53;20.60;99.90
37528;DHT22;23372;52.050;4.810;2023-07-16T10:12:22;20.90;99.90
37528;DHT22;23372;52.050;4.810;2023-07-16T10:14:49;21.40;99.90
37528;DHT22;23372;52.050;4.810;2023-07-16T10:17:20;21.90;99.90
37528;DHT22;23372;52.050;4.810;2023-07-16T10:20:07;22.10;99.90
37528;DHT22;23372;52.050;4.810;2023-07-16T10:24:59;21.70;99.90
37528;DHT22;23372;52.050;4.810;2023-07-16T10:27:33;21.70;99.90
37528;DHT22;23372;52.050;4.810;2023-07-16T10:30:01;21.80;99.90
37528;DHT22;23372;52.050;4.810;2023-07-16T10:32:29;21.70;99.90
37528;DHT22;23372;52.050;4.810;2023-07-16T10:34:56;21.20;99.90
37528;DHT22;23372;52.050;4.810;2023-07-16T10:37:22;21.40;99.90
37528;DHT22;23372;52.050;4.810;2023-07-16T10:39:49;21.20;99.90
37528;DHT22;23372;52.050;4.810;2023-07-16T10:42:16;21.40;99.90
37528;DHT22;23372;52.050;4.810;2023-07-16T10:44:42;21.70;99.90
37528;DHT22;23372;52.050;4.810;2023-07-16T10:47:10;22.50;99.90
37528;DHT22;23372;52.050;4.810;2023-07-16T10:49:44;23.00;99.90
37528;DHT22;23372;52.050;4.810;2023-07-16T10:52:10;23.40;99.90
37528;DHT22;23372;52.050;4.810;2023-07-16T10:54:35;23.70;99.90
37528;DHT22;23372;52.050;4.810;2023-07-16T10:57:03;23.60;99.90
37528;DHT22;23372;52.050;4.810;2023-07-16T10:59:29;22.90;99.90
37528;DHT22;23372;52.050;4.810;2023-07-16T11:01:55;23.00;99.90
37528;DHT22;23372;52.050;4.810;2023-07-16T11:04:20;23.10;99.90
37528;DHT22;23372;52.050;4.810;2023-07-16T11:06:46;22.40;99.90
37528;DHT22;23372;52.050;4.810;2023-07-16T11:09:11;22.70;99.90
37528;DHT22;23372;52.050;4.810;2023-07-16T11:11:38;22.80;99.90
37528;DHT22;23372;52.050;4.810;2023-07-16T11:14:06;22.70;99.90
37528;DHT22;23372;52.050;4.810;2023-07-16T11:16:36;23.00;99.90
37528;DHT22;23372;52.050;4.810;2023-07-16T11:19:05;23.50;99.90
37528;DHT22;23372;52.050;4.810;2023-07-16T11:21:35;23.90;99.90
37528;DHT22;23372;52.050;4.810;2023-07-16T11:24:12;24.10;99.90
37528;DHT22;23372;52.050;4.810;2023-07-16T11:26:39;24.00;99.90
37528;DHT22;23372;52.050;4.810;2023-07-16T11:29:14;24.20;99.90
37528;DHT22;23372;52.050;4.810;2023-07-16T11:31:40;24.30;99.90
37528;DHT22;23372;52.050;4.810;2023-07-16T11:34:13;24.20;99.90
37528;DHT22;23372;52.050;4.810;2023-07-16T11:36:39;24.40;99.90
37528;DHT22;23372;52.050;4.810;2023-07-16T11:39:04;24.70;99.90
37528;DHT22;23372;52.050;4.810;2023-07-16T11:41:30;25.10;99.90
37528;DHT22;23372;52.050;4.810;2023-07-16T11:44:02;25.10;99.90
37528;DHT22;23372;52.050;4.810;2023-07-16T11:46:32;24.20;99.90
37528;DHT22;23372;52.050;4.810;2023-07-16T11:49:01;24.00;99.90
37528;DHT22;23372;52.050;4.810;2023-07-16T11:51:26;23.70;99.90
37528;DHT22;23372;52.050;4.810;2023-07-16T11:53:52;23.60;99.90
37528;DHT22;23372;52.050;4.810;2023-07-16T11:56:18;23.50;99.90
37528;DHT22;23372;52.050;4.810;2023-07-16T11:58:43;23.30;99.90
37528;DHT22;23372;52.050;4.810;2023-07-16T12:01:09;23.40;99.90
37528;DHT22;23372;52.050;4.810;2023-07-16T12:03:35;23.30;99.90
37528;DHT22;23372;52.050;4.810;2023-07-16T12:06:01;23.20;99.90
37528;DHT22;23372;52.050;4.810;2023-07-16T12:08:26;23.10;99.90
37528;DHT22;23372;52.050;4.810;2023-07-16T12:10:52;22.90;99.90
37528;DHT22;23372;52.050;4.810;2023-07-16T12:13:18;22.80;99.90
37528;DHT22;23372;52.050;4.810;2023-07-16T12:15:43;22.90;99.90
37528;DHT22;23372;52.050;4.810;2023-07-16T12:18:09;22.80;99.90
37528;DHT22;23372;52.050;4.810;2023-07-16T12:20:35;22.20;99.90
37528;DHT22;23372;52.050;4.810;2023-07-16T12:23:02;22.00;99.90
37528;DHT22;23372;52.050;4.810;2023-07-16T12:25:28;22.00;99.90
37528;DHT22;23372;52.050;4.810;2023-07-16T12:27:54;22.10;99.90
37528;DHT22;23372;52.050;4.810;2023-07-16T12:30:19;22.10;99.90
37528;DHT22;23372;52.050;4.810;2023-07-16T12:32:45;22.30;99.90
37528;DHT22;23372;52.050;4.810;2023-07-16T12:35:11;22.40;99.90
37528;DHT22;23372;52.050;4.810;2023-07-16T12:37:36;22.50;99.90
37528;DHT22;23372;52.050;4.810;2023-07-16T12:40:03;23.10;99.90
37528;DHT22;23372;52.050;4.810;2023-07-16T12:42:28;23.90;99.90
37528;DHT22;23372;52.050;4.810;2023-07-16T12:44:54;24.20;99.90
37528;DHT22;23372;52.050;4.810;2023-07-16T12:47:20;24.50;99.90
37528;DHT22;23372;52.050;4.810;2023-07-16T12:49:45;24.10;99.90
37528;DHT22;23372;52.050;4.810;2023-07-16T12:52:11;23.80;99.90
37528;DHT22;23372;52.050;4.810;2023-07-16T12:54:37;24.40;99.90
37528;DHT22;23372;52.050;4.810;2023-07-16T12:57:03;24.40;99.90
37528;DHT22;23372;52.050;4.810;2023-07-16T12:59:28;24.90;99.90
37528;DHT22;23372;52.050;4.810;2023-07-16T13:01:54;24.40;99.90
37528;DHT22;23372;52.050;4.810;2023-07-16T13:04:19;24.00;99.90
37528;DHT22;23372;52.050;4.810;2023-07-16T13:06:45;23.40;99.90
37528;DHT22;23372;52.050;4.810;2023-07-16T13:09:13;23.00;99.90
37528;DHT22;23372;52.050;4.810;2023-07-16T13:11:40;23.00;99.90
37528;DHT22;23372;52.050;4.810;2023-07-16T13:14:06;23.40;99.90
37528;DHT22;23372;52.050;4.810;2023-07-16T13:16:32;23.40;99.90
37528;DHT22;23372;52.050;4.810;2023-07-16T13:18:57;23.60;99.90
37528;DHT22;23372;52.050;4.810;2023-07-16T13:21:23;24.00;99.90
37528;DHT22;23372;52.050;4.810;2023-07-16T13:23:49;23.70;99.90
37528;DHT22;23372;52.050;4.810;2023-07-16T13:26:14;23.60;99.90
37528;DHT22;23372;52.050;4.810;2023-07-16T13:28:40;23.20;99.90
37528;DHT22;23372;52.050;4.810;2023-07-16T13:31:06;23.00;99.90
37528;DHT22;23372;52.050;4.810;2023-07-16T13:33:31;22.60;99.90
37528;DHT22;23372;52.050;4.810;2023-07-16T13:35:57;22.70;99.90
37528;DHT22;23372;52.050;4.810;2023-07-16T13:38:27;23.30;99.90
37528;DHT22;23372;52.050;4.810;2023-07-16T13:40:52;23.90;99.90
37528;DHT22;23372;52.050;4.810;2023-07-16T13:43:18;24.10;99.90
37528;DHT22;23372;52.050;4.810;2023-07-16T13:45:43;24.10;99.90
37528;DHT22;23372;52.050;4.810;2023-07-16T13:48:09;23.90;99.90
37528;DHT22;23372;52.050;4.810;2023-07-16T13:50:35;23.80;99.90
37528;DHT22;23372;52.050;4.810;2023-07-16T13:53:00;23.60;99.90
37528;DHT22;23372;52.050;4.810;2023-07-16T13:55:27;23.40;99.90
37528;DHT22;23372;52.050;4.810;2023-07-16T13:57:54;24.00;99.90
37528;DHT22;23372;52.050;4.810;2023-07-16T14:00:21;24.00;99.90
37528;DHT22;23372;52.050;4.810;2023-07-16T14:02:47;23.90;99.90
37528;DHT22;23372;52.050;4.810;2023-07-16T14:05:13;24.40;99.90
37528;DHT22;23372;52.050;4.810;2023-07-16T14:07:38;24.90;99.90
37528;DHT22;23372;52.050;4.810;2023-07-16T14:10:04;25.30;99.90
37528;DHT22;23372;52.050;4.810;2023-07-16T14:12:30;25.20;99.90
37528;DHT22;23372;52.050;4.810;2023-07-16T14:14:56;25.20;99.90
37528;DHT22;23372;52.050;4.810;2023-07-16T14:17:21;25.40;99.90
37528;DHT22;23372;52.050;4.810;2023-07-16T14:19:48;25.10;99.90
37528;DHT22;23372;52.050;4.810;2023-07-16T14:22:14;24.90;99.90
37528;DHT22;23372;52.050;4.810;2023-07-16T14:24:41;24.90;99.90
37528;DHT22;23372;52.050;4.810;2023-07-16T14:27:08;24.80;99.90
37528;DHT22;23372;52.050;4.810;2023-07-16T14:29:36;24.90;99.90
37528;DHT22;23372;52.050;4.810;2023-07-16T14:32:02;24.50;99.90
37528;DHT22;23372;52.050;4.810;2023-07-16T14:34:28;24.00;99.90
37528;DHT22;23372;52.050;4.810;2023-07-16T14:36:54;23.50;99.90
37528;DHT22;23372;52.050;4.810;2023-07-16T14:39:19;23.30;99.90
37528;DHT22;23372;52.050;4.810;2023-07-16T14:41:45;23.10;99.90
37528;DHT22;23372;52.050;4.810;2023-07-16T14:44:11;23.00;99.90
37528;DHT22;23372;52.050;4.810;2023-07-16T14:46:37;23.50;99.90
37528;DHT22;23372;52.050;4.810;2023-07-16T14:49:03;23.90;99.90
37528;DHT22;23372;52.050;4.810;2023-07-16T14:51:28;24.10;99.90
37528;DHT22;23372;52.050;4.810;2023-07-16T14:53:55;24.10;99.90
37528;DHT22;23372;52.050;4.810;2023-07-16T14:56:21;24.00;99.90
37528;DHT22;23372;52.050;4.810;2023-07-16T14:58:47;23.80;99.90
37528;DHT22;23372;52.050;4.810;2023-07-16T15:01:13;24.00;99.90
37528;DHT22;23372;52.050;4.810;2023-07-16T15:03:39;23.90;99.90
37528;DHT22;23372;52.050;4.810;2023-07-16T15:06:08;24.00;99.90
37528;DHT22;23372;52.050;4.810;2023-07-16T15:08:35;24.30;99.90
37528;DHT22;23372;52.050;4.810;2023-07-16T15:11:01;24.70;99.90
37528;DHT22;23372;52.050;4.810;2023-07-16T15:13:27;24.60;99.90
37528;DHT22;23372;52.050;4.810;2023-07-16T15:15:57;24.40;99.90
37528;DHT22;23372;52.050;4.810;2023-07-16T15:18:23;24.30;99.90
37528;DHT22;23372;52.050;4.810;2023-07-16T15:20:58;24.10;99.90
37528;DHT22;23372;52.050;4.810;2023-07-16T15:23:28;23.90;99.90
37528;DHT22;23372;52.050;4.810;2023-07-16T15:25:55;23.70;99.90
37528;DHT22;23372;52.050;4.810;2023-07-16T15:28:21;23.60;99.90
37528;DHT22;23372;52.050;4.810;2023-07-16T15:30:48;23.40;99.90